Главная страница
METAR-TAF:

METAR-TAF

Аэропорты :

Воронеж, Россия

широта: 51-39N, долгота: 039-15E, высота над уровнем моря: 154 м

Текущие метеонаблюдения

Эта сводка был подготовлена 40 минут назад, в 02:30 UTC
Штиль
Температура 17°C
Влажность 94%
Давление 1018 hPa
Видимость 10 км и более
Рассеянная облачность на высоте 2000 фута, Кучево-дождевые.
гроза, небольшой дождь

METAR: UUOO 170230Z 00000MPS 9999 -TSRA BKN020CB 17/16 Q1018 R30/290155 NOSIG RMK QFE750

Время: 06:10 (03:10 UTC)

Прогноз

Эта сводка был подготовлена 1 час и 10 минут назад, в 02:00 UTC
Прогноз действительный с 17-го 03 UTC до 17-го 12 UTC
Ветер 6 Узел от северо-северо-восточный
Видимость 10 км и более
Отдельные облака на высоте 4000 фута
временами
С 17-го 03 UTC до 17-го 06 UTC
Рассеянная облачность на высоте 3000 фута, Кучево-дождевые.
гроза, небольшой дождь

TAF: UUOO 170200Z 1703/1712 02003MPS 9999 SCT040 TEMPO 1703/1706 -TSRA BKN030CB

Метеонаблюдения и прогнозы для более 4000 аэропортов (сводки METAR и TAF).

Имеющиеся станции представлены на карте желтыми и красными точками.

Чтобы увидеть название станции, наведите на нее мышь.

Затем щелкните, чтобы увидеть метеонаблюдения и метеопрогнозы.

Управление картой: чтобы увеличить масштаб, щелкните зеленые кнопки с черным крестиком; чтобы уменьшить масштаб, щелкните зеленую кнопку с тире; для просмотра соседних карт щелкайте зеленые стрелки.


METAR-TAF: